SDM weather

Brown Field Municipal Airport
San Diego, California, United States

Public forecast

Using degrees Fahrenheit for public forecast. Weather courtesy of forecast.io.

METAR (pilot weather report)

Retrieved 2019/05/25 16:53 UTC (30 minutes ago):

KSDM 251653Z 25003KT 10SM BKN023 17/10 A2993

TAF (pilot weather forecast)

Closest forecast is General Abelardo L. Rodríguez International Airport, 1.9 nm (3.6 km) SSE. Retrieved 2019/05/25 12:44 UTC (5 hours ago):

TAF MMTJ 251137Z 2512/2618 26005KT 6SM HZ SCT015 TX20/2521Z TN11/2512Z TEMPO 2512/2514 BKN015 FM251600 30010KT P6SM SKC FM260300 30005KT 5SM HZ SCT015 FM260800 30005KT 5SM HZ BKN015 TEMPO 2614/2618 5SM RA